Time;durP1;ratioP1;P1;durP2;ratioP2;P2;SDS_P1;SDS_P2;PMS_P1;PMS_P2;Temp;Humidity;BMP_temperature;BMP_pressure;BME280_temperature;BME280_humidity;BME280_pressure;Samples;Min_cycle;Max_cycle;Signal;HPM_P1;HPM_P2
2022/02/09 00:02:36;;;;;;;2.07;1.90;;;7.90;99.90;;;;;;4943684;28;20581;-51
2022/02/09 00:07:59;;;;;;;2.15;1.95;;;7.90;99.90;;;;;;4928742;28;20248;-52
2022/02/09 00:10:29;;;;;;;2.40;2.20;;;7.90;99.90;;;;;;4940565;29;20222;-50
2022/02/09 00:13:14;;;;;;;2.13;2.03;;;7.90;99.90;;;;;;4928100;29;21016;-50
2022/02/09 00:15:51;;;;;;;2.00;1.80;;;7.90;99.90;;;;;;4947325;28;20901;-51
2022/02/09 00:18:29;;;;;;;2.33;2.13;;;7.90;99.90;;;;;;4939870;28;20569;-51
2022/02/09 00:21:30;;;;;;;5.80;2.60;;;7.90;99.90;;;;;;4940646;28;20486;-51
2022/02/09 00:24:28;;;;;;;2.13;2.03;;;7.90;99.90;;;;;;4947365;28;20465;-51
2022/02/09 00:33:12;;;;;;;2.93;2.73;;;7.90;99.90;;;;;;4928159;29;20731;-51
2022/02/09 01:39:51;;;;;;;2.43;2.23;;;7.90;99.90;;;;;;5024545;28;20460;-51
2022/02/09 01:51:16;;;;;;;2.90;2.60;;;7.90;99.90;;;;;;5023450;28;20469;-52
2022/02/09 01:56:35;;;;;;;2.70;2.50;;;7.90;99.90;;;;;;5017394;28;20232;-52
2022/02/09 01:59:05;;;;;;;2.80;2.57;;;7.90;99.90;;;;;;5025375;28;20570;-53
2022/02/09 02:01:34;;;;;;;2.37;2.17;;;7.90;99.90;;;;;;5013271;28;20882;-51
2022/02/09 02:04:03;;;;;;;2.53;2.33;;;7.90;99.90;;;;;;5001357;28;20461;-52
2022/02/09 02:06:33;;;;;;;3.73;2.40;;;7.90;99.90;;;;;;5015270;28;20232;-52
2022/02/09 02:09:04;;;;;;;2.40;2.20;;;7.90;99.90;;;;;;5030561;28;20448;-52
2022/02/09 02:11:38;;;;;;;2.80;2.60;;;7.90;99.90;;;;;;5028571;28;20470;-51
2022/02/09 02:14:18;;;;;;;2.60;2.40;;;7.90;99.90;;;;;;5024821;28;20846;-51
2022/02/09 02:16:51;;;;;;;2.83;2.50;;;7.90;99.90;;;;;;5030327;28;20463;-52
2022/02/09 02:19:31;;;;;;;2.40;2.20;;;7.90;99.90;;;;;;5009069;28;20718;-51
2022/02/09 02:22:10;;;;;;;2.87;2.30;;;7.90;99.90;;;;;;5010460;28;20706;-51
2022/02/09 02:30:41;;;;;;;2.20;2.00;;;7.90;99.90;;;;;;5001894;28;20858;-52
2022/02/09 02:33:42;;;;;;;3.73;2.47;;;7.90;99.90;;;;;;5007465;28;20506;-51
2022/02/09 02:39:34;;;;;;;2.70;2.20;;;7.90;99.90;;;;;;5024777;28;20478;-52
2022/02/09 02:59:16;;;;;;;4.38;2.25;;;7.90;99.90;;;;;;4995261;28;20502;-51
2022/02/09 03:10:27;;;;;;;1.97;1.87;;;7.90;99.90;;;;;;5008994;28;20863;-51
2022/02/09 03:13:01;;;;;;;2.00;1.90;;;7.90;99.90;;;;;;5008532;28;20868;-52
2022/02/09 03:15:35;;;;;;;2.40;2.20;;;7.90;99.90;;;;;;4993945;28;21034;-52
2022/02/09 03:18:26;;;;;;;1.93;1.83;;;7.90;99.90;;;;;;5007619;28;20479;-52
2022/02/09 03:21:04;;;;;;;2.00;1.80;;;7.90;99.90;;;;;;5021635;28;20474;-52
2022/02/09 03:23:45;;;;;;;1.90;1.80;;;7.90;99.90;;;;;;5018842;28;20445;-52
2022/02/09 03:43:16;;;;;;;2.07;1.97;;;7.90;99.90;;;;;;5007398;28;20469;-51
2022/02/09 03:46:10;;;;;;;3.28;2.10;;;7.90;99.90;;;;;;5023057;28;20479;-52
2022/02/09 03:48:52;;;;;;;2.20;2.10;;;7.90;99.90;;;;;;5016266;28;20457;-50
2022/02/09 03:54:26;;;;;;;2.20;2.00;;;7.90;99.90;;;;;;4986148;28;20845;-52
2022/02/09 03:57:09;;;;;;;2.20;2.00;;;7.90;99.90;;;;;;5003062;28;20975;-52
2022/02/09 03:59:37;;;;;;;2.03;1.83;;;7.90;99.90;;;;;;5002653;28;20530;-52
2022/02/09 04:02:07;;;;;;;1.80;1.70;;;7.90;99.90;;;;;;5007504;28;20979;-52
2022/02/09 04:04:35;;;;;;;3.17;2.20;;;7.90;99.90;;;;;;5003336;28;21024;-52
2022/02/09 04:07:04;;;;;;;1.97;1.77;;;7.90;99.90;;;;;;5017355;28;20479;-50
2022/02/09 04:09:34;;;;;;;6.45;2.60;;;7.90;99.90;;;;;;5028550;28;20460;-51
2022/02/09 04:12:11;;;;;;;2.47;2.15;;;7.90;99.90;;;;;;5000694;28;20267;-51
2022/02/09 04:14:48;;;;;;;2.03;1.77;;;7.90;99.90;;;;;;5008240;28;20296;-51
2022/02/09 04:17:29;;;;;;;2.23;2.03;;;7.90;99.90;;;;;;5018380;28;20569;-53
2022/02/09 04:20:20;;;;;;;1.87;1.77;;;7.90;99.90;;;;;;5009156;28;20472;-52
2022/02/09 04:36:49;;;;;;;1.80;1.70;;;7.90;99.90;;;;;;5016244;28;20566;-52
2022/02/09 04:39:25;;;;;;;2.90;1.80;;;7.90;99.90;;;;;;5025771;28;20229;-51
2022/02/09 04:42:04;;;;;;;2.57;2.30;;;7.90;99.90;;;;;;5017345;28;20663;-51
2022/02/09 04:44:47;;;;;;;2.27;2.00;;;7.90;99.90;;;;;;5001583;28;20448;-52
2022/02/09 04:50:11;;;;;;;1.92;1.80;;;7.90;99.90;;;;;;4998646;28;20829;-52
2022/02/09 04:55:54;;;;;;;2.40;2.20;;;7.90;99.90;;;;;;4997533;28;20440;-51
2022/02/09 04:58:34;;;;;;;2.25;2.05;;;7.90;99.90;;;;;;5016903;28;20506;-52
2022/02/09 05:01:11;;;;;;;2.83;2.43;;;7.90;99.90;;;;;;5019599;28;20229;-51
2022/02/09 05:23:20;;;;;;;3.22;2.22;;;7.90;99.90;;;;;;5023176;28;20203;-52
2022/02/09 05:25:50;;;;;;;2.30;2.10;;;7.90;99.90;;;;;;5027683;28;20251;-52
2022/02/09 05:28:19;;;;;;;3.60;1.60;;;7.90;99.90;;;;;;5018564;28;20475;-51
2022/02/09 05:30:51;;;;;;;2.58;2.30;;;7.90;99.90;;;;;;5007960;28;20353;-52
2022/02/09 05:33:20;;;;;;;2.10;1.90;;;7.90;99.90;;;;;;5007945;28;20202;-52
2022/02/09 05:35:48;;;;;;;1.73;1.40;;;7.90;99.90;;;;;;5011070;28;20490;-52
2022/02/09 05:38:20;;;;;;;2.40;1.70;;;7.90;99.90;;;;;;5042762;28;20485;-52
2022/02/09 05:40:48;;;;;;;3.50;2.40;;;7.90;99.90;;;;;;5036162;28;20470;-52
2022/02/09 05:43:16;;;;;;;2.60;1.77;;;7.90;99.90;;;;;;5032382;28;20537;-52
2022/02/09 05:46:10;;;;;;;2.10;1.90;;;7.90;99.90;;;;;;5044681;28;20459;-52
2022/02/09 05:51:33;;;;;;;1.83;1.73;;;7.90;99.90;;;;;;5020176;28;20523;-52
2022/02/09 05:54:21;;;;;;;2.33;2.13;;;7.90;99.90;;;;;;5051236;28;20435;-52
2022/02/09 05:57:10;;;;;;;2.63;2.30;;;7.90;99.90;;;;;;5051072;28;21104;-51
2022/02/09 05:59:37;;;;;;;1.80;1.70;;;7.90;99.90;;;;;;5019030;28;20509;-52
2022/02/09 06:02:06;;;;;;;2.70;2.23;;;7.90;99.90;;;;;;5048366;28;20459;-52
2022/02/09 06:04:38;;;;;;;2.40;2.20;;;7.90;99.90;;;;;;5039341;28;20443;-52
2022/02/09 06:07:06;;;;;;;2.13;2.03;;;7.90;99.90;;;;;;5040603;28;20363;-51
2022/02/09 06:09:37;;;;;;;2.03;1.92;;;7.90;99.90;;;;;;5051256;28;20300;-51
2022/02/09 06:12:12;;;;;;;1.80;1.70;;;7.90;99.90;;;;;;5039135;28;20271;-51
2022/02/09 06:14:57;;;;;;;2.30;2.10;;;7.90;99.90;;;;;;5030754;28;20493;-52
2022/02/09 06:20:13;;;;;;;2.33;2.05;;;7.90;99.90;;;;;;5022682;28;20607;-52
2022/02/09 06:22:41;;;;;;;2.25;2.05;;;7.90;99.90;;;;;;5031115;28;20310;-53
2022/02/09 06:25:11;;;;;;;2.00;1.80;;;7.90;99.90;;;;;;5048834;28;20253;-51
2022/02/09 06:27:39;;;;;;;2.58;2.22;;;7.90;99.90;;;;;;5042407;28;20463;-51
2022/02/09 06:30:09;;;;;;;2.60;2.40;;;7.90;99.90;;;;;;5041626;28;20232;-53
2022/02/09 06:32:37;;;;;;;2.20;2.00;;;7.90;99.90;;;;;;5030378;28;20496;-52
2022/02/09 06:35:06;;;;;;;2.70;2.13;;;7.90;99.90;;;;;;5029542;28;20195;-52
2022/02/09 06:37:41;;;;;;;2.20;2.00;;;7.90;99.90;;;;;;5035601;28;20698;-52
2022/02/09 06:40:14;;;;;;;2.60;2.40;;;7.90;99.90;;;;;;5047666;28;20958;-51
2022/02/09 06:42:42;;;;;;;1.90;1.80;;;7.90;99.90;;;;;;5030415;28;20482;-52
2022/02/09 06:45:17;;;;;;;3.17;2.00;;;7.90;99.90;;;;;;5011814;28;20451;-53
2022/02/09 06:47:45;;;;;;;2.23;2.03;;;7.90;99.90;;;;;;5022451;28;20584;-53
2022/02/09 06:50:20;;;;;;;1.92;1.77;;;7.90;99.90;;;;;;5011801;28;20503;-52
2022/02/09 06:52:59;;;;;;;2.72;2.20;;;7.90;99.90;;;;;;5011269;28;20715;-52
2022/02/09 06:55:28;;;;;;;2.87;2.67;;;7.90;99.90;;;;;;5030242;28;20220;-52
2022/02/09 06:58:02;;;;;;;2.47;2.27;;;7.90;99.90;;;;;;5023278;28;20526;-52
2022/02/09 07:00:33;;;;;;;2.20;2.00;;;7.90;99.90;;;;;;5028819;28;20457;-52
2022/02/09 07:03:05;;;;;;;2.47;2.28;;;7.90;99.90;;;;;;5044461;28;20473;-51
2022/02/09 07:05:34;;;;;;;2.77;1.90;;;7.90;99.90;;;;;;5028980;28;20203;-51
2022/02/09 07:08:04;;;;;;;2.17;2.00;;;7.90;99.90;;;;;;5034417;28;20869;-52
2022/02/09 07:10:35;;;;;;;1.97;1.80;;;7.90;99.90;;;;;;5048417;28;20282;-53
2022/02/09 07:13:06;;;;;;;2.40;2.20;;;7.90;99.90;;;;;;5026187;28;20447;-52
2022/02/09 07:15:40;;;;;;;2.50;2.30;;;7.90;99.90;;;;;;5030486;28;20473;-51
2022/02/09 07:18:11;;;;;;;2.50;2.30;;;7.90;99.90;;;;;;5034302;28;20876;-52
2022/02/09 07:20:51;;;;;;;1.80;1.70;;;7.90;99.90;;;;;;5029751;28;20228;-51
2022/02/09 07:23:24;;;;;;;2.80;2.13;;;7.90;99.90;;;;;;5030273;28;20249;-52
2022/02/09 07:26:07;;;;;;;2.30;2.10;;;7.90;99.90;;;;;;5029733;28;20510;-52
2022/02/09 07:28:37;;;;;;;2.37;2.17;;;7.90;99.90;;;;;;5030205;28;20222;-52
2022/02/09 07:31:07;;;;;;;2.40;2.20;;;7.90;99.90;;;;;;5046412;28;20517;-52
2022/02/09 07:33:40;;;;;;;3.40;2.20;;;7.90;99.90;;;;;;5042711;28;20287;-52
2022/02/09 07:36:10;;;;;;;1.93;1.70;;;7.90;99.90;;;;;;5027673;28;20463;-52
2022/02/09 07:38:39;;;;;;;1.80;1.70;;;7.90;99.90;;;;;;5035791;28;20727;-52
2022/02/09 07:41:10;;;;;;;2.53;1.97;;;7.90;99.90;;;;;;5027045;28;20496;-51
2022/02/09 07:43:44;;;;;;;1.57;1.47;;;7.90;99.90;;;;;;5040052;28;20443;-51
2022/02/09 07:46:25;;;;;;;2.30;1.73;;;7.90;99.90;;;;;;5034440;28;20469;-52
2022/02/09 07:49:04;;;;;;;2.60;2.40;;;7.90;99.90;;;;;;5039326;28;20475;-51
2022/02/09 07:51:44;;;;;;;1.97;1.87;;;7.90;99.90;;;;;;5030924;28;20474;-52
2022/02/09 07:54:12;;;;;;;2.25;2.05;;;7.90;99.90;;;;;;5035589;28;20431;-52
2022/02/09 07:56:43;;;;;;;3.77;2.30;;;7.90;99.90;;;;;;5041146;28;20484;-51
2022/02/09 07:59:15;;;;;;;2.50;2.30;;;7.90;99.90;;;;;;5046595;28;20462;-51
2022/02/09 08:01:45;;;;;;;2.42;2.22;;;7.90;99.90;;;;;;5028970;28;20985;-53
2022/02/09 08:04:14;;;;;;;2.17;1.98;;;7.90;99.90;;;;;;5023503;28;20212;-51
2022/02/09 08:06:42;;;;;;;2.30;2.10;;;7.90;99.90;;;;;;5042248;28;20247;-52
2022/02/09 08:09:17;;;;;;;2.17;2.00;;;7.90;99.90;;;;;;5049216;28;20215;-52
2022/02/09 08:11:55;;;;;;;3.33;2.87;;;7.90;99.90;;;;;;5029882;28;20476;-52
2022/02/09 08:28:48;;;;;;;2.37;1.90;;;7.90;99.90;;;;;;4985264;28;20278;-50
2022/02/09 08:34:02;;;;;;;2.53;2.20;;;7.90;99.90;;;;;;5039449;28;20200;-51
2022/02/09 08:36:30;;;;;;;1.73;1.50;;;7.90;99.90;;;;;;5032680;28;20463;-51
2022/02/09 08:38:58;;;;;;;2.40;2.20;;;7.90;99.90;;;;;;5047923;28;20435;-52
2022/02/09 08:41:26;;;;;;;2.50;2.30;;;7.90;99.90;;;;;;5031110;28;20511;-52
2022/02/09 08:43:56;;;;;;;2.60;2.10;;;7.90;99.90;;;;;;5024686;28;20189;-51
2022/02/09 08:46:24;;;;;;;2.27;2.03;;;7.90;99.90;;;;;;5034993;28;20472;-51
2022/02/09 08:48:53;;;;;;;3.10;2.53;;;7.90;99.90;;;;;;5026093;28;21045;-52
2022/02/09 08:51:22;;;;;;;2.60;2.20;;;7.90;99.90;;;;;;5027900;28;21037;-51
2022/02/09 08:53:50;;;;;;;2.07;1.80;;;8.00;99.90;;;;;;5027910;28;20428;-51
2022/02/09 08:56:19;;;;;;;2.20;1.90;;;7.90;99.90;;;;;;5027481;28;20828;-51
2022/02/09 08:58:47;;;;;;;2.63;2.30;;;7.90;99.90;;;;;;5022346;28;20447;-51
2022/02/09 09:01:27;;;;;;;2.80;2.00;;;7.90;99.90;;;;;;5027099;28;20547;-51
2022/02/09 09:03:57;;;;;;;3.17;2.20;;;7.90;99.90;;;;;;5018587;28;21028;-52
2022/02/09 09:06:27;;;;;;;2.60;2.40;;;7.90;99.90;;;;;;5027569;28;20483;-52
2022/02/09 09:09:16;;;;;;;5.00;2.00;;;8.00;99.90;;;;;;5045348;28;20474;-51
2022/02/09 09:15:04;;;;;;;2.70;2.40;;;8.00;99.90;;;;;;5039158;28;20830;-50
2022/02/09 09:17:51;;;;;;;2.55;2.30;;;8.00;99.90;;;;;;5024542;28;20474;-51
2022/02/09 10:01:57;;;;;;;2.67;2.43;;;8.00;99.90;;;;;;5007407;28;20469;-51
2022/02/09 10:05:08;;;;;;;2.33;2.10;;;8.00;99.90;;;;;;5032128;28;20861;-52
2022/02/09 10:31:19;;;;;;;3.17;2.50;;;7.90;99.90;;;;;;5049938;28;20970;-51
2022/02/09 10:33:54;;;;;;;3.30;2.30;;;8.00;99.90;;;;;;5025375;28;20448;-51
2022/02/09 10:36:22;;;;;;;2.90;2.70;;;8.00;99.90;;;;;;5041454;28;20495;-51
2022/02/09 10:39:05;;;;;;;2.42;2.20;;;8.00;99.90;;;;;;5049937;28;20439;-51
2022/02/09 10:41:42;;;;;;;2.55;2.33;;;8.00;99.90;;;;;;5046300;28;20566;-50
2022/02/09 10:44:13;;;;;;;2.73;2.50;;;7.90;99.90;;;;;;5031623;28;20208;-50
2022/02/09 10:46:48;;;;;;;2.67;2.47;;;8.00;99.90;;;;;;5032628;28;20481;-51
2022/02/09 10:49:19;;;;;;;2.80;2.33;;;8.00;99.90;;;;;;5035517;28;20483;-52
2022/02/09 10:51:51;;;;;;;3.07;2.60;;;8.00;99.90;;;;;;5029584;28;21045;-51
2022/02/09 10:54:27;;;;;;;3.03;2.37;;;8.00;99.90;;;;;;5029539;28;20432;-51
2022/02/09 10:56:58;;;;;;;3.90;2.80;;;8.00;99.90;;;;;;5028104;28;21305;-50
2022/02/09 10:59:29;;;;;;;2.90;2.60;;;8.00;99.90;;;;;;5029406;28;20450;-52
2022/02/09 11:02:00;;;;;;;2.77;2.40;;;8.00;99.90;;;;;;5035827;28;20478;-50
2022/02/09 11:04:30;;;;;;;3.13;2.33;;;8.00;99.90;;;;;;5031616;28;20511;-51
2022/02/09 11:06:58;;;;;;;2.55;2.20;;;8.00;99.90;;;;;;5029173;28;20465;-51
2022/02/09 11:09:30;;;;;;;2.63;2.20;;;8.00;99.90;;;;;;5028390;28;20265;-52
2022/02/09 11:12:00;;;;;;;3.20;2.50;;;8.00;99.90;;;;;;5023418;28;20476;-51
2022/02/09 11:14:28;;;;;;;2.95;2.50;;;8.00;99.90;;;;;;5033334;28;20441;-51
2022/02/09 11:16:58;;;;;;;3.60;2.83;;;8.00;99.90;;;;;;5039677;28;20451;-51
2022/02/09 11:19:32;;;;;;;3.60;2.77;;;8.00;99.90;;;;;;5035670;28;20958;-52
2022/02/09 11:22:09;;;;;;;4.03;2.73;;;8.00;99.90;;;;;;5028419;28;20467;-52
2022/02/09 11:24:43;;;;;;;2.27;2.07;;;8.10;99.90;;;;;;5043452;28;20446;-51
2022/02/09 11:27:20;;;;;;;2.80;2.40;;;8.10;99.90;;;;;;5024095;28;20470;-52
2022/02/09 11:30:06;;;;;;;2.70;2.30;;;8.10;99.90;;;;;;5033555;28;20471;-52
2022/02/09 11:33:10;;;;;;;4.60;3.07;;;8.10;99.90;;;;;;5034794;28;20525;-52
2022/02/09 11:36:06;;;;;;;3.10;2.40;;;8.10;99.90;;;;;;5028282;28;20447;-50
2022/02/09 11:38:39;;;;;;;3.73;2.90;;;8.10;99.90;;;;;;5030768;28;20445;-51
2022/02/09 11:41:18;;;;;;;4.03;3.53;;;8.10;99.90;;;;;;5028926;28;20482;-51
2022/02/09 11:44:10;;;;;;;4.00;3.13;;;8.10;99.90;;;;;;5011203;28;20970;-51
2022/02/09 11:58:46;;;;;;;3.90;3.60;;;8.10;99.90;;;;;;5009408;28;20462;-52
2022/02/09 12:10:23;;;;;;;6.73;3.17;;;8.10;99.90;;;;;;5014094;28;20471;-51
2022/02/09 12:13:06;;;;;;;4.77;3.90;;;8.10;99.90;;;;;;5022720;28;20455;-51
2022/02/09 12:15:53;;;;;;;5.80;3.30;;;8.10;99.90;;;;;;5027635;28;20431;-52
2022/02/09 12:18:28;;;;;;;6.33;3.50;;;8.10;99.90;;;;;;5024680;28;20872;-51
2022/02/09 12:21:06;;;;;;;3.57;3.30;;;8.10;99.90;;;;;;5008589;28;20477;-50
2022/02/09 12:23:37;;;;;;;3.30;2.87;;;8.10;99.90;;;;;;5008895;28;20817;-51
2022/02/09 12:26:13;;;;;;;4.57;3.13;;;8.10;99.90;;;;;;5008259;28;20484;-52
2022/02/09 12:28:43;;;;;;;4.70;2.97;;;8.10;99.90;;;;;;5008582;28;20534;-51
2022/02/09 12:31:22;;;;;;;6.03;3.30;;;8.20;99.90;;;;;;5008341;28;20461;-51
2022/02/09 12:33:53;;;;;;;5.03;2.70;;;8.20;99.90;;;;;;5008444;28;20447;-51
2022/02/09 12:36:25;;;;;;;3.67;2.70;;;8.20;99.90;;;;;;5008393;28;20548;-51
2022/02/09 12:38:58;;;;;;;4.93;3.40;;;8.10;99.90;;;;;;5008492;28;20930;-51
2022/02/09 12:41:27;;;;;;;3.83;3.03;;;8.20;99.90;;;;;;5008755;28;20548;-51
2022/02/09 12:43:57;;;;;;;6.43;4.10;;;8.20;99.90;;;;;;5008570;28;20473;-51
2022/02/09 12:46:32;;;;;;;4.60;3.30;;;8.20;99.90;;;;;;5008224;28;20465;-50
2022/02/09 12:49:07;;;;;;;3.00;2.70;;;8.20;99.90;;;;;;5008081;28;20847;-51
2022/02/09 12:51:37;;;;;;;4.33;3.20;;;8.20;99.90;;;;;;5008170;28;20464;-51
2022/02/09 12:54:08;;;;;;;6.90;3.23;;;8.20;99.90;;;;;;5008388;28;20476;-52
2022/02/09 12:56:40;;;;;;;4.50;3.33;;;8.20;99.90;;;;;;5008611;28;20486;-51
2022/02/09 12:59:10;;;;;;;3.20;2.43;;;8.20;99.90;;;;;;5020785;28;20543;-51
2022/02/09 13:01:43;;;;;;;4.53;2.37;;;8.20;99.90;;;;;;5027794;28;20496;-50
2022/02/09 13:04:30;;;;;;;5.20;2.97;;;8.20;99.90;;;;;;5016694;28;20448;-52
2022/02/09 13:06:59;;;;;;;3.50;2.50;;;8.20;99.90;;;;;;5008144;28;20507;-52
2022/02/09 13:09:27;;;;;;;4.37;2.80;;;8.20;99.90;;;;;;5008559;28;20449;-51
2022/02/09 13:11:55;;;;;;;3.90;2.57;;;8.20;99.90;;;;;;5011776;28;21041;-51
2022/02/09 13:14:35;;;;;;;3.93;3.10;;;8.20;99.90;;;;;;5042718;28;20428;-52
2022/02/09 13:20:27;;;;;;;2.30;1.87;;;8.20;99.90;;;;;;5026909;28;20495;-51
2022/02/09 13:26:23;;;;;;;5.90;3.03;;;8.20;99.90;;;;;;5024055;28;20462;-51
2022/02/09 14:11:51;;;;;;;2.63;2.43;;;8.20;99.90;;;;;;4950526;28;20474;-51
2022/02/09 14:17:21;;;;;;;3.67;3.33;;;8.20;99.90;;;;;;5040759;28;20503;-51
2022/02/09 14:51:34;;;;;;;2.83;2.53;;;8.70;99.90;;;;;;4999555;28;20546;-51
2022/02/09 14:54:12;;;;;;;2.90;2.47;;;8.70;99.90;;;;;;5030309;28;20435;-51
2022/02/09 14:56:53;;;;;;;4.40;2.73;;;8.70;99.90;;;;;;5045072;28;20878;-51
2022/02/09 14:59:34;;;;;;;3.03;2.53;;;8.70;99.90;;;;;;5011269;28;20463;-51
2022/02/09 15:02:08;;;;;;;2.70;2.40;;;8.70;99.90;;;;;;5012162;28;20464;-51
2022/02/09 15:05:00;;;;;;;5.30;2.57;;;8.70;99.90;;;;;;5030871;28;20453;-50
2022/02/09 15:07:31;;;;;;;4.67;2.80;;;8.80;99.90;;;;;;5029840;28;20565;-51
2022/02/09 15:10:06;;;;;;;3.70;2.40;;;8.70;99.90;;;;;;5029079;28;21135;-50
2022/02/09 15:12:50;;;;;;;2.80;2.53;;;8.70;99.90;;;;;;5029453;28;20489;-52
2022/02/09 15:15:33;;;;;;;5.80;2.47;;;8.80;99.90;;;;;;5010086;28;20560;-50
2022/02/09 15:21:01;;;;;;;2.43;2.23;;;8.70;99.90;;;;;;4993877;28;20538;-51
2022/02/09 15:23:32;;;;;;;2.77;2.50;;;8.70;99.90;;;;;;5029219;28;20493;-52
2022/02/09 15:26:04;;;;;;;3.30;2.77;;;8.70;99.90;;;;;;5030206;28;20455;-52
2022/02/09 15:28:35;;;;;;;3.87;2.50;;;8.80;99.90;;;;;;5023462;28;20936;-51
2022/02/09 15:31:09;;;;;;;2.30;2.10;;;8.80;99.90;;;;;;5021991;28;20478;-51
2022/02/09 15:33:45;;;;;;;2.97;2.33;;;8.80;99.90;;;;;;5023394;28;20453;-51
2022/02/09 15:36:47;;;;;;;4.23;2.50;;;8.80;99.90;;;;;;5028612;28;21041;-51
2022/02/09 15:39:19;;;;;;;2.67;2.47;;;8.80;99.90;;;;;;5028978;28;20463;-51
2022/02/09 15:42:05;;;;;;;5.97;2.70;;;8.80;99.90;;;;;;5028074;28;20513;-52
2022/02/09 16:09:34;;;;;;;2.30;2.10;;;8.80;99.90;;;;;;5028737;28;20526;-52
2022/02/09 16:23:15;;;;;;;2.57;2.20;;;8.70;99.90;;;;;;5030454;28;20415;-50
2022/02/09 16:26:02;;;;;;;2.13;1.83;;;8.70;99.90;;;;;;5028661;28;20474;-51
2022/02/09 16:34:28;;;;;;;3.00;2.20;;;8.70;99.90;;;;;;4992964;28;20938;-51
2022/02/09 16:46:01;;;;;;;2.80;2.27;;;8.80;99.90;;;;;;5024958;28;20440;-52
2022/02/09 16:48:31;;;;;;;2.30;2.10;;;8.70;99.90;;;;;;5039533;28;20487;-52
2022/02/09 16:51:01;;;;;;;2.23;2.03;;;8.80;99.90;;;;;;5045228;28;20459;-52
2022/02/09 16:53:45;;;;;;;2.60;1.80;;;8.80;99.90;;;;;;5047636;28;21036;-52
2022/02/09 16:56:45;;;;;;;2.43;2.23;;;8.80;99.90;;;;;;5041285;28;20491;-52
2022/02/09 17:18:50;;;;;;;2.50;2.30;;;8.70;99.90;;;;;;5026365;28;20456;-50
2022/02/09 17:21:20;;;;;;;2.57;2.17;;;8.80;99.90;;;;;;5008686;28;20457;-52
2022/02/09 17:23:49;;;;;;;3.30;2.27;;;8.70;99.90;;;;;;5038341;28;20530;-51
2022/02/09 17:26:17;;;;;;;3.63;2.50;;;8.70;99.90;;;;;;5048234;28;20489;-51
2022/02/09 17:28:55;;;;;;;2.60;2.40;;;8.70;99.90;;;;;;5034849;28;20447;-52
2022/02/09 17:31:29;;;;;;;5.23;2.60;;;8.70;99.90;;;;;;5031858;28;21032;-52
2022/02/09 17:37:06;;;;;;;3.47;2.47;;;8.70;99.90;;;;;;5000296;28;20476;-51
2022/02/09 17:53:30;;;;;;;2.50;2.30;;;8.70;99.90;;;;;;5012037;28;20486;-51
2022/02/09 17:56:04;;;;;;;3.77;2.73;;;8.70;99.90;;;;;;5011317;28;20471;-51
2022/02/09 17:58:38;;;;;;;6.67;2.80;;;8.70;99.90;;;;;;4992969;28;20462;-50
2022/02/09 18:01:07;;;;;;;3.40;2.90;;;8.70;99.90;;;;;;5009943;28;20599;-52
2022/02/09 18:03:35;;;;;;;2.73;2.40;;;8.70;99.90;;;;;;5006835;28;20921;-51
2022/02/09 18:06:15;;;;;;;4.23;3.83;;;8.70;99.90;;;;;;5008149;28;21045;-51
2022/02/09 18:08:50;;;;;;;4.53;3.03;;;8.70;99.90;;;;;;5011353;28;20440;-50
2022/02/09 18:11:29;;;;;;;6.30;2.60;;;8.70;99.90;;;;;;5005027;28;20508;-51
2022/02/09 18:30:30;;;;;;;3.83;3.00;;;8.70;99.90;;;;;;5027158;28;20885;-51
2022/02/09 18:44:18;;;;;;;3.23;2.80;;;8.70;99.90;;;;;;4989262;28;20480;-52
2022/02/09 19:03:54;;;;;;;4.13;3.57;;;8.70;99.90;;;;;;4997895;28;22018;-51
2022/02/09 19:06:28;;;;;;;3.23;2.30;;;8.70;99.90;;;;;;5026207;28;20498;-51
2022/02/09 19:14:10;;;;;;;4.73;2.63;;;8.70;99.90;;;;;;5031812;28;20423;-50
2022/02/09 19:14:46;;;;;;;2.70;2.50;;;8.70;99.90;;;;;;5004051;28;20508;-51
2022/02/09 19:17:24;;;;;;;2.70;2.17;;;8.70;99.90;;;;;;5022460;28;20496;-51
2022/02/09 19:20:06;;;;;;;3.30;3.00;;;8.70;99.90;;;;;;4994807;28;20564;-50
2022/02/09 19:30:55;;;;;;;4.70;3.00;;;8.70;99.90;;;;;;5026092;28;20486;-52
2022/02/09 19:47:22;;;;;;;5.33;3.27;;;8.70;99.90;;;;;;5013310;28;20480;-51
2022/02/09 19:50:13;;;;;;;4.30;3.40;;;8.60;99.90;;;;;;4993887;28;20520;-52
2022/02/09 19:52:54;;;;;;;5.10;2.83;;;8.70;99.90;;;;;;5026957;28;20555;-51
2022/02/09 19:55:37;;;;;;;9.03;4.43;;;8.70;99.90;;;;;;4997677;28;20433;-51
2022/02/09 19:58:08;;;;;;;6.60;5.10;;;8.70;99.90;;;;;;5010460;28;20461;-52
2022/02/09 20:00:37;;;;;;;6.63;4.10;;;8.70;99.90;;;;;;5030179;28;20455;-52
2022/02/09 20:03:08;;;;;;;4.60;3.80;;;8.70;99.90;;;;;;5026410;28;20459;-51
2022/02/09 20:05:36;;;;;;;3.93;3.53;;;8.60;99.90;;;;;;4993990;28;20448;-52
2022/02/09 20:08:06;;;;;;;4.40;3.70;;;8.70;99.90;;;;;;5009758;28;20822;-52
2022/02/09 20:10:36;;;;;;;7.37;4.20;;;8.70;99.90;;;;;;5021689;28;20448;-51
2022/02/09 20:13:04;;;;;;;4.43;3.30;;;8.70;99.90;;;;;;4997555;28;20467;-52
2022/02/09 20:15:32;;;;;;;3.60;3.30;;;8.70;99.90;;;;;;5016468;28;20443;-51
2022/02/09 20:18:00;;;;;;;6.40;3.50;;;8.70;99.90;;;;;;5027141;28;20486;-51
2022/02/09 20:20:30;;;;;;;5.70;3.63;;;8.70;99.90;;;;;;4990218;28;20946;-52
2022/02/09 20:22:59;;;;;;;4.53;3.97;;;8.70;99.90;;;;;;5003173;28;20464;-52
2022/02/09 20:25:28;;;;;;;5.03;3.83;;;8.60;99.90;;;;;;5007479;28;20878;-51
2022/02/09 20:27:58;;;;;;;3.70;3.40;;;8.60;99.90;;;;;;4996418;28;20811;-52
2022/02/09 20:30:34;;;;;;;3.30;2.77;;;8.70;99.90;;;;;;4996990;28;20460;-51
2022/02/09 20:33:07;;;;;;;5.43;3.73;;;8.70;99.90;;;;;;5007931;28;20773;-50
2022/02/09 20:35:35;;;;;;;4.60;3.27;;;8.60;99.90;;;;;;5001981;28;20944;-51
2022/02/09 20:38:03;;;;;;;4.30;3.20;;;8.60;99.90;;;;;;5008978;28;20456;-52
2022/02/09 20:40:38;;;;;;;5.23;3.90;;;8.60;99.90;;;;;;5012418;28;20766;-51
2022/02/09 20:43:09;;;;;;;4.53;4.10;;;8.70;99.90;;;;;;4990211;28;20465;-52
2022/02/09 20:45:44;;;;;;;6.63;4.40;;;8.60;99.90;;;;;;5008101;28;20473;-51
2022/02/09 20:48:15;;;;;;;3.50;3.20;;;8.60;99.90;;;;;;5016915;28;20462;-51
2022/02/09 20:50:44;;;;;;;4.53;3.43;;;8.60;99.90;;;;;;4990292;28;20485;-51
2022/02/09 20:53:14;;;;;;;3.03;2.60;;;8.70;99.90;;;;;;4999375;28;20531;-52
2022/02/09 20:55:43;;;;;;;4.60;3.57;;;8.60;99.90;;;;;;5004994;28;20437;-51
2022/02/09 20:58:13;;;;;;;3.57;3.27;;;8.60;99.90;;;;;;4989821;28;20444;-51
2022/02/09 21:00:46;;;;;;;3.53;3.23;;;8.60;99.90;;;;;;5004723;28;20829;-51
2022/02/09 21:03:32;;;;;;;5.40;4.60;;;8.60;99.90;;;;;;5020465;28;20448;-51
2022/02/09 21:06:11;;;;;;;3.20;2.80;;;8.60;99.90;;;;;;4993174;28;20496;-51
2022/02/09 21:08:46;;;;;;;5.93;3.33;;;8.60;99.90;;;;;;5010341;28;20483;-51
2022/02/09 21:11:20;;;;;;;2.90;2.43;;;8.60;99.90;;;;;;5012990;28;20578;-52
2022/02/09 21:13:58;;;;;;;3.47;2.90;;;8.60;99.90;;;;;;5004990;28;20488;-52
2022/02/09 21:16:40;;;;;;;3.30;2.73;;;8.60;99.90;;;;;;4996936;28;21058;-51
2022/02/09 21:22:40;;;;;;;3.97;3.33;;;8.60;99.90;;;;;;4986982;28;20468;-50
2022/02/09 21:25:42;;;;;;;5.33;3.07;;;8.60;99.90;;;;;;5033112;28;20416;-52
2022/02/09 21:42:48;;;;;;;3.07;2.53;;;8.60;99.90;;;;;;5011124;28;20483;-52
2022/02/09 21:53:46;;;;;;;3.63;2.87;;;8.60;99.90;;;;;;5002140;28;20499;-52
2022/02/09 21:56:21;;;;;;;3.73;3.43;;;8.60;99.90;;;;;;5011403;28;20487;-52
2022/02/09 21:59:01;;;;;;;6.73;2.80;;;8.60;99.90;;;;;;5002793;28;20451;-51
2022/02/09 22:21:17;;;;;;;3.73;3.00;;;8.50;99.90;;;;;;4992154;28;20465;-51
2022/02/09 22:24:51;;;;;;;2.83;2.53;;;8.60;99.90;;;;;;5011869;28;20440;-51
2022/02/09 22:27:21;;;;;;;3.60;3.00;;;8.60;99.90;;;;;;5011062;28;20999;-52
2022/02/09 22:30:27;;;;;;;2.70;2.50;;;8.50;99.90;;;;;;5014025;28;20971;-51
2022/02/09 22:34:06;;;;;;;4.30;3.67;;;8.50;99.90;;;;;;5019452;28;20482;-50
2022/02/09 22:50:08;;;;;;;4.67;2.93;;;8.50;99.90;;;;;;5010045;28;20459;-51
2022/02/09 22:55:26;;;;;;;3.53;3.20;;;8.50;99.90;;;;;;5010788;28;20492;-52
2022/02/09 22:57:57;;;;;;;2.80;2.57;;;8.50;99.90;;;;;;5006562;28;20496;-52
2022/02/09 23:00:58;;;;;;;6.00;3.90;;;8.50;99.90;;;;;;5027077;28;20480;-51
2022/02/09 23:03:34;;;;;;;8.40;3.33;;;8.50;99.90;;;;;;5024326;28;20514;-50
2022/02/09 23:11:58;;;;;;;3.00;2.80;;;8.50;99.90;;;;;;5010962;28;20825;-51
2022/02/09 23:14:54;;;;;;;2.83;2.40;;;8.50;99.90;;;;;;5006632;28;20456;-51
2022/02/09 23:18:11;;;;;;;3.93;3.40;;;8.50;99.90;;;;;;4998448;28;20465;-51
2022/02/09 23:21:19;;;;;;;3.30;3.00;;;8.50;99.90;;;;;;5008477;28;20461;-52
2022/02/09 23:24:06;;;;;;;4.43;2.97;;;8.50;99.90;;;;;;5012288;28;20860;-52
2022/02/09 23:54:36;;;;;;;4.07;3.73;;;8.50;99.90;;;;;;5029324;28;20432;-51
